sensor_id;sensor_type;location;lat;lon;timestamp;pressure;altitude;pressure_sealevel;temperature;humidity
80988;BME280;70452;39.386;-3.210;2023-08-08T00:01:42;94224.63;;;25.08;62.14
80988;BME280;70452;39.386;-3.210;2023-08-08T00:04:21;94224.38;;;24.94;62.75
80988;BME280;70452;39.386;-3.210;2023-08-08T00:06:56;94221.97;;;24.66;64.35
80988;BME280;70452;39.386;-3.210;2023-08-08T00:09:35;94223.53;;;24.90;63.17
80988;BME280;70452;39.386;-3.210;2023-08-08T00:17:57;94203.47;;;24.54;65.24
80988;BME280;70452;39.386;-3.210;2023-08-08T00:20:33;94223.38;;;24.33;66.76
80988;BME280;70452;39.386;-3.210;2023-08-08T00:23:11;94219.38;;;24.34;66.78
80988;BME280;70452;39.386;-3.210;2023-08-08T00:25:52;94207.63;;;24.21;67.17
80988;BME280;70452;39.386;-3.210;2023-08-08T00:28:37;94211.66;;;24.24;67.38
80988;BME280;70452;39.386;-3.210;2023-08-08T00:31:18;94204.44;;;24.19;67.56
80988;BME280;70452;39.386;-3.210;2023-08-08T00:33:56;94224.88;;;24.07;68.70
80988;BME280;70452;39.386;-3.210;2023-08-08T00:36:32;94208.84;;;24.01;69.01
80988;BME280;70452;39.386;-3.210;2023-08-08T00:39:10;94216.31;;;23.77;70.96
80988;BME280;70452;39.386;-3.210;2023-08-08T00:41:50;94225.66;;;23.85;71.06
80988;BME280;70452;39.386;-3.210;2023-08-08T00:44:24;94213.75;;;23.68;72.00
80988;BME280;70452;39.386;-3.210;2023-08-08T00:47:07;94212.66;;;23.73;71.92
80988;BME280;70452;39.386;-3.210;2023-08-08T00:49:42;94202.34;;;23.73;71.76
80988;BME280;70452;39.386;-3.210;2023-08-08T00:52:19;94210.13;;;23.64;72.39
80988;BME280;70452;39.386;-3.210;2023-08-08T00:54:46;94201.69;;;23.41;74.29
80988;BME280;70452;39.386;-3.210;2023-08-08T00:57:25;94201.25;;;23.39;74.70
80988;BME280;70452;39.386;-3.210;2023-08-08T01:00:06;94208.72;;;23.35;75.30
80988;BME280;70452;39.386;-3.210;2023-08-08T01:02:43;94192.25;;;23.26;75.76
80988;BME280;70452;39.386;-3.210;2023-08-08T01:05:20;94195.59;;;23.16;76.69
80988;BME280;70452;39.386;-3.210;2023-08-08T01:07:52;94195.31;;;23.21;76.35
80988;BME280;70452;39.386;-3.210;2023-08-08T01:10:45;94185.63;;;23.15;77.11
80988;BME280;70452;39.386;-3.210;2023-08-08T01:13:22;94183.50;;;23.08;77.67
80988;BME280;70452;39.386;-3.210;2023-08-08T01:15:58;94186.19;;;23.04;78.16
80988;BME280;70452;39.386;-3.210;2023-08-08T01:18:38;94216.44;;;22.90;79.48
80988;BME280;70452;39.386;-3.210;2023-08-08T01:21:08;94180.03;;;22.79;80.23
80988;BME280;70452;39.386;-3.210;2023-08-08T01:26:33;94187.59;;;22.79;80.42
80988;BME280;70452;39.386;-3.210;2023-08-08T01:29:20;94207.53;;;22.84;79.84
80988;BME280;70452;39.386;-3.210;2023-08-08T01:31:55;94191.28;;;22.67;81.48
80988;BME280;70452;39.386;-3.210;2023-08-08T01:34:40;94189.69;;;22.66;82.18
80988;BME280;70452;39.386;-3.210;2023-08-08T01:37:51;94178.84;;;22.61;82.67
80988;BME280;70452;39.386;-3.210;2023-08-08T01:40:18;94193.28;;;22.51;83.38
80988;BME280;70452;39.386;-3.210;2023-08-08T01:42:51;94192.66;;;22.57;83.04
80988;BME280;70452;39.386;-3.210;2023-08-08T01:48:42;94188.78;;;22.46;84.24
80988;BME280;70452;39.386;-3.210;2023-08-08T01:51:19;94167.94;;;22.36;85.32
80988;BME280;70452;39.386;-3.210;2023-08-08T01:53:56;94158.63;;;22.28;86.39
80988;BME280;70452;39.386;-3.210;2023-08-08T01:56:31;94177.25;;;22.28;86.70
80988;BME280;70452;39.386;-3.210;2023-08-08T01:59:04;94192.09;;;22.20;87.21
80988;BME280;70452;39.386;-3.210;2023-08-08T02:01:49;94164.53;;;22.11;87.70
80988;BME280;70452;39.386;-3.210;2023-08-08T02:04:32;94177.03;;;22.21;87.34
80988;BME280;70452;39.386;-3.210;2023-08-08T02:07:04;94160.56;;;22.12;88.29
80988;BME280;70452;39.386;-3.210;2023-08-08T02:09:35;94166.19;;;22.16;88.13
80988;BME280;70452;39.386;-3.210;2023-08-08T02:12:07;94189.84;;;22.09;88.35
80988;BME280;70452;39.386;-3.210;2023-08-08T02:14:44;94186.75;;;21.99;89.14
80988;BME280;70452;39.386;-3.210;2023-08-08T02:17:20;94171.22;;;21.94;89.95
80988;BME280;70452;39.386;-3.210;2023-08-08T02:19:52;94186.31;;;21.97;89.88
80988;BME280;70452;39.386;-3.210;2023-08-08T02:22:27;94186.59;;;21.91;90.22
80988;BME280;70452;39.386;-3.210;2023-08-08T02:25:05;94186.59;;;21.91;90.03
80988;BME280;70452;39.386;-3.210;2023-08-08T02:28:03;94173.31;;;21.85;90.67
80988;BME280;70452;39.386;-3.210;2023-08-08T02:30:40;94171.19;;;21.78;91.70
80988;BME280;70452;39.386;-3.210;2023-08-08T02:33:09;94171.47;;;21.73;92.06
80988;BME280;70452;39.386;-3.210;2023-08-08T02:35:43;94187.84;;;21.78;91.62
80988;BME280;70452;39.386;-3.210;2023-08-08T02:38:09;94189.34;;;21.76;91.98
80988;BME280;70452;39.386;-3.210;2023-08-08T02:40:44;94191.84;;;21.81;91.33
80988;BME280;70452;39.386;-3.210;2023-08-08T02:43:19;94201.44;;;21.83;91.25
80988;BME280;70452;39.386;-3.210;2023-08-08T02:45:47;94199.19;;;21.73;92.52
80988;BME280;70452;39.386;-3.210;2023-08-08T02:48:21;94191.56;;;21.70;92.72
80988;BME280;70452;39.386;-3.210;2023-08-08T02:50:57;94199.13;;;21.57;94.49
80988;BME280;70452;39.386;-3.210;2023-08-08T02:53:24;94203.72;;;21.65;93.38
80988;BME280;70452;39.386;-3.210;2023-08-08T02:55:52;94209.59;;;21.64;93.66
80988;BME280;70452;39.386;-3.210;2023-08-08T02:58:27;94211.69;;;21.67;93.74
80988;BME280;70452;39.386;-3.210;2023-08-08T03:01:02;94216.06;;;21.68;93.20
80988;BME280;70452;39.386;-3.210;2023-08-08T03:03:43;94210.09;;;21.53;94.73
80988;BME280;70452;39.386;-3.210;2023-08-08T03:06:12;94192.69;;;21.53;94.62
80988;BME280;70452;39.386;-3.210;2023-08-08T03:08:44;94192.31;;;21.54;94.58
80988;BME280;70452;39.386;-3.210;2023-08-08T03:11:22;94199.72;;;21.50;94.99
80988;BME280;70452;39.386;-3.210;2023-08-08T03:13:51;94199.63;;;21.47;95.25
80988;BME280;70452;39.386;-3.210;2023-08-08T03:16:33;94199.16;;;21.45;95.72
80988;BME280;70452;39.386;-3.210;2023-08-08T03:19:14;94201.91;;;21.45;95.82
80988;BME280;70452;39.386;-3.210;2023-08-08T03:21:40;94211.66;;;21.39;96.73
80988;BME280;70452;39.386;-3.210;2023-08-08T03:24:19;94211.53;;;21.35;96.86
80988;BME280;70452;39.386;-3.210;2023-08-08T03:26:54;94221.00;;;21.34;97.31
80988;BME280;70452;39.386;-3.210;2023-08-08T03:29:21;94211.41;;;21.31;97.62
80988;BME280;70452;39.386;-3.210;2023-08-08T03:31:51;94229.09;;;21.39;96.76
80988;BME280;70452;39.386;-3.210;2023-08-08T03:34:25;94218.34;;;21.38;96.87
80988;BME280;70452;39.386;-3.210;2023-08-08T03:36:53;94232.00;;;21.30;97.85
80988;BME280;70452;39.386;-3.210;2023-08-08T03:39:25;94234.53;;;21.35;97.35
80988;BME280;70452;39.386;-3.210;2023-08-08T03:41:57;94215.97;;;21.24;98.56
80988;BME280;70452;39.386;-3.210;2023-08-08T03:44:27;94217.00;;;21.19;98.92
80988;BME280;70452;39.386;-3.210;2023-08-08T03:46:58;94223.81;;;21.22;98.91
80988;BME280;70452;39.386;-3.210;2023-08-08T03:49:39;94220.56;;;21.20;99.31
80988;BME280;70452;39.386;-3.210;2023-08-08T03:52:16;94225.06;;;21.24;98.54
80988;BME280;70452;39.386;-3.210;2023-08-08T03:55:00;94237.53;;;21.30;98.02
80988;BME280;70452;39.386;-3.210;2023-08-08T03:57:36;94248.28;;;21.32;97.78
80988;BME280;70452;39.386;-3.210;2023-08-08T04:00:18;94246.09;;;21.25;98.66
80988;BME280;70452;39.386;-3.210;2023-08-08T04:02:50;94227.63;;;21.17;99.19
80988;BME280;70452;39.386;-3.210;2023-08-08T04:05:21;94241.28;;;21.10;100.00
80988;BME280;70452;39.386;-3.210;2023-08-08T04:08:08;94250.63;;;21.05;100.00
80988;BME280;70452;39.386;-3.210;2023-08-08T04:10:46;94262.28;;;20.98;100.00
80988;BME280;70452;39.386;-3.210;2023-08-08T04:13:20;94264.94;;;21.07;100.00
80988;BME280;70452;39.386;-3.210;2023-08-08T04:15:58;94278.22;;;21.02;100.00
80988;BME280;70452;39.386;-3.210;2023-08-08T04:18:37;94262.97;;;21.08;100.00
80988;BME280;70452;39.386;-3.210;2023-08-08T04:21:14;94271.03;;;21.01;100.00
80988;BME280;70452;39.386;-3.210;2023-08-08T04:23:43;94267.59;;;20.91;100.00
80988;BME280;70452;39.386;-3.210;2023-08-08T04:26:23;94259.06;;;20.96;100.00
80988;BME280;70452;39.386;-3.210;2023-08-08T04:28:58;94253.63;;;21.00;100.00
80988;BME280;70452;39.386;-3.210;2023-08-08T04:31:27;94258.03;;;21.01;100.00
80988;BME280;70452;39.386;-3.210;2023-08-08T04:34:00;94273.13;;;21.04;100.00
80988;BME280;70452;39.386;-3.210;2023-08-08T04:36:40;94273.94;;;20.79;100.00
80988;BME280;70452;39.386;-3.210;2023-08-08T04:39:15;94269.00;;;20.97;100.00
80988;BME280;70452;39.386;-3.210;2023-08-08T04:41:53;94250.88;;;20.88;100.00
80988;BME280;70452;39.386;-3.210;2023-08-08T04:44:28;94243.59;;;20.95;100.00
80988;BME280;70452;39.386;-3.210;2023-08-08T04:47:00;94252.28;;;20.94;100.00
80988;BME280;70452;39.386;-3.210;2023-08-08T04:49:55;94260.44;;;20.90;100.00
80988;BME280;70452;39.386;-3.210;2023-08-08T04:52:23;94259.88;;;20.85;100.00
80988;BME280;70452;39.386;-3.210;2023-08-08T04:55:01;94249.16;;;20.83;100.00
80988;BME280;70452;39.386;-3.210;2023-08-08T04:57:34;94268.41;;;20.92;100.00
80988;BME280;70452;39.386;-3.210;2023-08-08T05:00:13;94265.75;;;20.95;100.00
80988;BME280;70452;39.386;-3.210;2023-08-08T05:02:56;94272.34;;;20.91;100.00
80988;BME280;70452;39.386;-3.210;2023-08-08T05:05:39;94277.88;;;20.91;100.00
80988;BME280;70452;39.386;-3.210;2023-08-08T05:08:17;94253.09;;;20.82;100.00
80988;BME280;70452;39.386;-3.210;2023-08-08T05:11:00;94270.63;;;20.74;100.00
80988;BME280;70452;39.386;-3.210;2023-08-08T05:13:32;94276.72;;;20.79;100.00
80988;BME280;70452;39.386;-3.210;2023-08-08T05:16:10;94284.00;;;20.72;100.00
80988;BME280;70452;39.386;-3.210;2023-08-08T05:18:44;94263.22;;;20.78;100.00
80988;BME280;70452;39.386;-3.210;2023-08-08T05:21:34;94253.19;;;20.73;100.00
80988;BME280;70452;39.386;-3.210;2023-08-08T05:24:07;94239.47;;;20.77;100.00
80988;BME280;70452;39.386;-3.210;2023-08-08T05:26:54;94269.22;;;20.80;100.00
80988;BME280;70452;39.386;-3.210;2023-08-08T05:29:32;94283.75;;;20.89;100.00
80988;BME280;70452;39.386;-3.210;2023-08-08T05:32:11;94284.69;;;20.81;100.00
80988;BME280;70452;39.386;-3.210;2023-08-08T05:34:58;94273.59;;;20.81;100.00
80988;BME280;70452;39.386;-3.210;2023-08-08T05:37:44;94283.75;;;20.89;100.00
80988;BME280;70452;39.386;-3.210;2023-08-08T05:40:24;94278.00;;;20.94;100.00
80988;BME280;70452;39.386;-3.210;2023-08-08T05:43:06;94276.03;;;20.95;100.00
80988;BME280;70452;39.386;-3.210;2023-08-08T05:45:46;94274.53;;;21.10;99.94
80988;BME280;70452;39.386;-3.210;2023-08-08T05:48:15;94286.63;;;21.05;100.00
80988;BME280;70452;39.386;-3.210;2023-08-08T05:50:58;94278.66;;;21.16;99.01
80988;BME280;70452;39.386;-3.210;2023-08-08T05:53:28;94288.91;;;21.28;97.96
80988;BME280;70452;39.386;-3.210;2023-08-08T05:56:14;94298.41;;;21.27;97.93
80988;BME280;70452;39.386;-3.210;2023-08-08T05:58:56;94296.75;;;21.26;97.66
80988;BME280;70452;39.386;-3.210;2023-08-08T06:01:34;94291.09;;;21.34;96.83
80988;BME280;70452;39.386;-3.210;2023-08-08T06:04:27;94305.34;;;21.08;99.32
80988;BME280;70452;39.386;-3.210;2023-08-08T06:07:01;94297.25;;;21.15;98.52
80988;BME280;70452;39.386;-3.210;2023-08-08T06:09:46;94299.31;;;21.31;97.06
80988;BME280;70452;39.386;-3.210;2023-08-08T06:15:02;94293.63;;;21.40;96.24
80988;BME280;70452;39.386;-3.210;2023-08-08T06:17:40;94301.38;;;21.46;95.35
80988;BME280;70452;39.386;-3.210;2023-08-08T06:20:18;94302.47;;;21.70;93.34
80988;BME280;70452;39.386;-3.210;2023-08-08T06:22:52;94316.53;;;22.05;90.04
80988;BME280;70452;39.386;-3.210;2023-08-08T06:25:29;94304.28;;;22.06;89.68
80988;BME280;70452;39.386;-3.210;2023-08-08T06:28:11;94303.53;;;22.22;87.79
80988;BME280;70452;39.386;-3.210;2023-08-08T06:30:57;94304.03;;;22.40;86.94
80988;BME280;70452;39.386;-3.210;2023-08-08T06:33:30;94298.22;;;23.09;81.50
80988;BME280;70452;39.386;-3.210;2023-08-08T06:36:05;94292.34;;;22.62;84.62
80988;BME280;70452;39.386;-3.210;2023-08-08T06:38:38;94275.28;;;22.64;83.95
80988;BME280;70452;39.386;-3.210;2023-08-08T06:41:12;94281.03;;;22.39;86.17
80988;BME280;70452;39.386;-3.210;2023-08-08T06:43:57;94269.72;;;22.04;88.96
80988;BME280;70452;39.386;-3.210;2023-08-08T06:46:31;94268.47;;;22.29;87.25
80988;BME280;70452;39.386;-3.210;2023-08-08T06:49:09;94257.03;;;22.47;85.76
80988;BME280;70452;39.386;-3.210;2023-08-08T06:51:41;94274.84;;;22.46;85.66
80988;BME280;70452;39.386;-3.210;2023-08-08T06:54:27;94284.59;;;22.40;85.90
80988;BME280;70452;39.386;-3.210;2023-08-08T06:57:01;94273.53;;;22.56;84.13
80988;BME280;70452;39.386;-3.210;2023-08-08T06:59:36;94249.41;;;23.08;80.69
80988;BME280;70452;39.386;-3.210;2023-08-08T07:02:17;94278.22;;;23.19;79.68
80988;BME280;70452;39.386;-3.210;2023-08-08T07:04:46;94293.03;;;23.23;79.18
80988;BME280;70452;39.386;-3.210;2023-08-08T07:07:23;94273.25;;;23.44;77.38
80988;BME280;70452;39.386;-3.210;2023-08-08T07:10:03;94273.56;;;23.23;78.50
80988;BME280;70452;39.386;-3.210;2023-08-08T07:12:29;94289.41;;;23.38;77.45
80988;BME280;70452;39.386;-3.210;2023-08-08T07:15:10;94309.72;;;23.07;79.38
80988;BME280;70452;39.386;-3.210;2023-08-08T07:17:48;94317.22;;;22.59;82.90
80988;BME280;70452;39.386;-3.210;2023-08-08T07:20:23;94315.25;;;22.91;80.04
80988;BME280;70452;39.386;-3.210;2023-08-08T07:22:51;94286.94;;;23.53;76.25
80988;BME280;70452;39.386;-3.210;2023-08-08T07:25:23;94285.34;;;23.52;75.88
80988;BME280;70452;39.386;-3.210;2023-08-08T07:27:51;94302.41;;;23.34;76.71
80988;BME280;70452;39.386;-3.210;2023-08-08T07:30:28;94324.47;;;23.27;76.73
80988;BME280;70452;39.386;-3.210;2023-08-08T07:33:11;94329.78;;;23.68;75.25
80988;BME280;70452;39.386;-3.210;2023-08-08T07:35:43;94334.44;;;24.19;72.33
80988;BME280;70452;39.386;-3.210;2023-08-08T07:38:21;94347.88;;;24.98;68.31
80988;BME280;70452;39.386;-3.210;2023-08-08T07:40:53;94346.38;;;25.04;67.46
80988;BME280;70452;39.386;-3.210;2023-08-08T07:43:24;94345.19;;;25.52;65.09
80988;BME280;70452;39.386;-3.210;2023-08-08T07:45:56;94342.59;;;25.16;66.87
80988;BME280;70452;39.386;-3.210;2023-08-08T07:48:32;94321.28;;;25.81;63.34
80988;BME280;70452;39.386;-3.210;2023-08-08T07:51:14;94329.81;;;25.92;63.42
80988;BME280;70452;39.386;-3.210;2023-08-08T07:53:40;94342.88;;;25.57;63.93
80988;BME280;70452;39.386;-3.210;2023-08-08T07:56:17;94334.13;;;25.09;66.01
80988;BME280;70452;39.386;-3.210;2023-08-08T07:58:43;94312.13;;;25.04;66.32
80988;BME280;70452;39.386;-3.210;2023-08-08T08:01:19;94316.28;;;25.14;65.27
80988;BME280;70452;39.386;-3.210;2023-08-08T08:03:58;94310.44;;;25.22;64.41
80988;BME280;70452;39.386;-3.210;2023-08-08T08:06:31;94324.97;;;25.08;64.84
80988;BME280;70452;39.386;-3.210;2023-08-08T08:09:06;94338.22;;;25.38;64.28
80988;BME280;70452;39.386;-3.210;2023-08-08T08:11:39;94344.47;;;25.85;62.12
80988;BME280;70452;39.386;-3.210;2023-08-08T08:14:11;94343.28;;;26.16;60.06
80988;BME280;70452;39.386;-3.210;2023-08-08T08:16:44;94324.28;;;25.65;62.80
80988;BME280;70452;39.386;-3.210;2023-08-08T08:19:12;94323.66;;;25.79;62.28
80988;BME280;70452;39.386;-3.210;2023-08-08T08:21:52;94329.19;;;25.75;62.84
80988;BME280;70452;39.386;-3.210;2023-08-08T08:24:28;94331.13;;;25.71;62.63
80988;BME280;70452;39.386;-3.210;2023-08-08T08:27:00;94341.06;;;25.69;62.49
80988;BME280;70452;39.386;-3.210;2023-08-08T08:29:36;94335.69;;;26.47;59.07
80988;BME280;70452;39.386;-3.210;2023-08-08T08:32:08;94329.09;;;27.04;57.27
80988;BME280;70452;39.386;-3.210;2023-08-08T08:34:51;94338.59;;;26.54;58.58
80988;BME280;70452;39.386;-3.210;2023-08-08T08:37:27;94328.72;;;27.05;56.55
80988;BME280;70452;39.386;-3.210;2023-08-08T08:39:58;94322.69;;;27.48;55.62
80988;BME280;70452;39.386;-3.210;2023-08-08T08:42:32;94314.56;;;26.84;56.70
80988;BME280;70452;39.386;-3.210;2023-08-08T08:45:15;94324.41;;;27.63;54.70
80988;BME280;70452;39.386;-3.210;2023-08-08T08:47:49;94335.97;;;27.62;54.33
80988;BME280;70452;39.386;-3.210;2023-08-08T08:50:29;94329.03;;;27.41;53.89
80988;BME280;70452;39.386;-3.210;2023-08-08T08:53:00;94330.53;;;27.83;52.46
80988;BME280;70452;39.386;-3.210;2023-08-08T08:55:33;94326.31;;;28.11;52.17
80988;BME280;70452;39.386;-3.210;2023-08-08T08:58:07;94311.03;;;28.01;52.24
80988;BME280;70452;39.386;-3.210;2023-08-08T09:00:51;94322.38;;;28.30;49.83
80988;BME280;70452;39.386;-3.210;2023-08-08T09:03:25;94324.94;;;28.75;48.27
80988;BME280;70452;39.386;-3.210;2023-08-08T09:05:57;94334.56;;;28.85;47.91
80988;BME280;70452;39.386;-3.210;2023-08-08T09:08:28;94334.84;;;28.43;48.15
80988;BME280;70452;39.386;-3.210;2023-08-08T09:10:56;94338.56;;;28.73;46.11
80988;BME280;70452;39.386;-3.210;2023-08-08T09:13:36;94332.84;;;28.51;47.83
80988;BME280;70452;39.386;-3.210;2023-08-08T09:16:07;94330.22;;;29.34;44.53
80988;BME280;70452;39.386;-3.210;2023-08-08T09:18:40;94337.84;;;29.41;44.62
80988;BME280;70452;39.386;-3.210;2023-08-08T09:21:18;94341.00;;;29.03;45.62
80988;BME280;70452;39.386;-3.210;2023-08-08T09:24:12;94335.38;;;30.11;42.43
80988;BME280;70452;39.386;-3.210;2023-08-08T09:26:40;94342.69;;;29.36;44.39
80988;BME280;70452;39.386;-3.210;2023-08-08T09:29:11;94338.50;;;30.27;41.52
80988;BME280;70452;39.386;-3.210;2023-08-08T09:31:41;94331.91;;;30.74;40.57
80988;BME280;70452;39.386;-3.210;2023-08-08T09:34:16;94326.09;;;31.10;39.84
80988;BME280;70452;39.386;-3.210;2023-08-08T09:36:42;94339.66;;;30.55;40.90
80988;BME280;70452;39.386;-3.210;2023-08-08T09:39:20;94349.47;;;31.59;38.18
80988;BME280;70452;39.386;-3.210;2023-08-08T09:41:50;94365.41;;;31.76;37.98
80988;BME280;70452;39.386;-3.210;2023-08-08T09:44:16;94373.72;;;31.91;37.75
80988;BME280;70452;39.386;-3.210;2023-08-08T09:46:47;94375.41;;;31.25;38.62
80988;BME280;70452;39.386;-3.210;2023-08-08T09:49:14;94361.69;;;30.67;39.36
80988;BME280;70452;39.386;-3.210;2023-08-08T09:51:44;94364.81;;;31.51;37.69
80988;BME280;70452;39.386;-3.210;2023-08-08T09:54:16;94359.06;;;32.10;36.60
80988;BME280;70452;39.386;-3.210;2023-08-08T09:57:07;94353.97;;;31.94;36.35
80988;BME280;70452;39.386;-3.210;2023-08-08T09:59:58;94344.63;;;32.01;35.49
80988;BME280;70452;39.386;-3.210;2023-08-08T10:02:25;94356.75;;;31.56;35.61
80988;BME280;70452;39.386;-3.210;2023-08-08T10:04:52;94346.72;;;32.35;31.82
80988;BME280;70452;39.386;-3.210;2023-08-08T10:07:26;94348.66;;;32.76;32.44
80988;BME280;70452;39.386;-3.210;2023-08-08T10:39:19;94347.00;;;33.37;29.19
80988;BME280;70452;39.386;-3.210;2023-08-08T10:41:53;94354.63;;;33.63;28.63
80988;BME280;70452;39.386;-3.210;2023-08-08T10:44:41;94338.72;;;33.77;27.24
80988;BME280;70452;39.386;-3.210;2023-08-08T10:47:42;94333.31;;;34.70;25.57
80988;BME280;70452;39.386;-3.210;2023-08-08T10:50:39;94326.22;;;34.82;24.71
80988;BME280;70452;39.386;-3.210;2023-08-08T10:53:15;94303.91;;;35.20;24.55
80988;BME280;70452;39.386;-3.210;2023-08-08T10:56:01;94298.47;;;35.46;23.77
80988;BME280;70452;39.386;-3.210;2023-08-08T10:58:49;94331.78;;;34.65;24.55
80988;BME280;70452;39.386;-3.210;2023-08-08T11:01:32;94347.88;;;35.08;24.19
80988;BME280;70452;39.386;-3.210;2023-08-08T11:04:28;94330.09;;;35.61;22.48
80988;BME280;70452;39.386;-3.210;2023-08-08T11:07:12;94308.88;;;36.15;21.21
80988;BME280;70452;39.386;-3.210;2023-08-08T11:09:53;94296.13;;;36.07;20.12
80988;BME280;70452;39.386;-3.210;2023-08-08T11:12:28;94309.56;;;36.19;19.81
80988;BME280;70452;39.386;-3.210;2023-08-08T11:15:15;94345.78;;;35.82;20.54
80988;BME280;70452;39.386;-3.210;2023-08-08T11:18:15;94325.69;;;35.76;21.64
80988;BME280;70452;39.386;-3.210;2023-08-08T11:20:49;94304.69;;;35.57;21.78
80988;BME280;70452;39.386;-3.210;2023-08-08T11:23:23;94297.56;;;35.65;20.69
80988;BME280;70452;39.386;-3.210;2023-08-08T11:25:57;94310.34;;;35.90;20.97
80988;BME280;70452;39.386;-3.210;2023-08-08T11:28:32;94314.69;;;35.78;20.10
80988;BME280;70452;39.386;-3.210;2023-08-08T11:31:01;94306.69;;;36.06;20.64
80988;BME280;70452;39.386;-3.210;2023-08-08T11:33:39;94304.94;;;35.30;21.24
80988;BME280;70452;39.386;-3.210;2023-08-08T11:36:30;94313.63;;;35.56;20.93
80988;BME280;70452;39.386;-3.210;2023-08-08T11:39:19;94306.88;;;35.99;21.21
80988;BME280;70452;39.386;-3.210;2023-08-08T11:42:07;94302.66;;;36.49;20.42
80988;BME280;70452;39.386;-3.210;2023-08-08T11:44:54;94301.97;;;36.87;19.70
80988;BME280;70452;39.386;-3.210;2023-08-08T11:47:35;94304.41;;;37.27;19.09
80988;BME280;70452;39.386;-3.210;2023-08-08T11:50:09;94300.56;;;37.21;18.78
80988;BME280;70452;39.386;-3.210;2023-08-08T11:52:49;94289.25;;;36.37;19.45
80988;BME280;70452;39.386;-3.210;2023-08-08T11:55:28;94298.16;;;36.52;19.26
80988;BME280;70452;39.386;-3.210;2023-08-08T11:58:11;94281.44;;;36.83;18.24
80988;BME280;70452;39.386;-3.210;2023-08-08T12:00:50;94292.00;;;36.83;17.48
80988;BME280;70452;39.386;-3.210;2023-08-08T12:06:33;94286.69;;;37.49;16.68
80988;BME280;70452;39.386;-3.210;2023-08-08T12:12:04;94283.16;;;37.70;14.40
80988;BME280;70452;39.386;-3.210;2023-08-08T12:14:42;94283.00;;;37.87;14.88
80988;BME280;70452;39.386;-3.210;2023-08-08T12:17:22;94273.03;;;38.04;14.96
80988;BME280;70452;39.386;-3.210;2023-08-08T12:20:20;94273.03;;;38.17;14.49
80988;BME280;70452;39.386;-3.210;2023-08-08T12:22:49;94279.56;;;38.27;14.36
80988;BME280;70452;39.386;-3.210;2023-08-08T12:25:21;94259.06;;;37.62;13.91
80988;BME280;70452;39.386;-3.210;2023-08-08T12:27:58;94261.59;;;37.09;14.81
80988;BME280;70452;39.386;-3.210;2023-08-08T12:30:31;94255.22;;;37.30;15.13
80988;BME280;70452;39.386;-3.210;2023-08-08T12:33:09;94249.66;;;37.01;15.82
80988;BME280;70452;39.386;-3.210;2023-08-08T12:35:39;94260.56;;;37.03;15.20
80988;BME280;70452;39.386;-3.210;2023-08-08T12:38:17;94257.28;;;37.17;14.86
80988;BME280;70452;39.386;-3.210;2023-08-08T12:40:53;94251.59;;;37.17;14.79
80988;BME280;70452;39.386;-3.210;2023-08-08T12:43:30;94253.16;;;37.44;14.65
80988;BME280;70452;39.386;-3.210;2023-08-08T12:46:40;94252.28;;;37.95;14.29
80988;BME280;70452;39.386;-3.210;2023-08-08T12:49:16;94240.00;;;37.50;14.32
80988;BME280;70452;39.386;-3.210;2023-08-08T12:51:49;94244.19;;;37.32;14.34
80988;BME280;70452;39.386;-3.210;2023-08-08T12:54:24;94238.09;;;37.21;14.56
80988;BME280;70452;39.386;-3.210;2023-08-08T12:56:58;94242.63;;;37.31;14.17
80988;BME280;70452;39.386;-3.210;2023-08-08T12:59:34;94245.66;;;37.50;13.93
80988;BME280;70452;39.386;-3.210;2023-08-08T13:02:19;94241.16;;;37.14;14.26
80988;BME280;70452;39.386;-3.210;2023-08-08T13:04:55;94241.81;;;37.44;13.99
80988;BME280;70452;39.386;-3.210;2023-08-08T13:07:33;94233.16;;;37.47;13.71
80988;BME280;70452;39.386;-3.210;2023-08-08T13:10:03;94230.91;;;37.42;13.77
80988;BME280;70452;39.386;-3.210;2023-08-08T13:12:49;94233.75;;;37.42;13.24
80988;BME280;70452;39.386;-3.210;2023-08-08T13:15:30;94248.63;;;37.46;13.26
80988;BME280;70452;39.386;-3.210;2023-08-08T13:18:09;94233.09;;;38.21;12.73
80988;BME280;70452;39.386;-3.210;2023-08-08T13:20:56;94236.38;;;38.41;12.40
80988;BME280;70452;39.386;-3.210;2023-08-08T13:23:40;94233.22;;;38.93;12.38
80988;BME280;70452;39.386;-3.210;2023-08-08T13:26:18;94219.56;;;39.69;11.59
80988;BME280;70452;39.386;-3.210;2023-08-08T13:28:59;94219.50;;;39.41;11.96
80988;BME280;70452;39.386;-3.210;2023-08-08T13:34:24;94227.25;;;39.41;11.98
80988;BME280;70452;39.386;-3.210;2023-08-08T13:37:02;94222.28;;;39.13;11.62
80988;BME280;70452;39.386;-3.210;2023-08-08T13:39:53;94229.84;;;39.16;11.66
80988;BME280;70452;39.386;-3.210;2023-08-08T13:42:22;94215.00;;;39.22;11.70
80988;BME280;70452;39.386;-3.210;2023-08-08T13:44:53;94220.50;;;39.56;11.91
80988;BME280;70452;39.386;-3.210;2023-08-08T13:47:19;94214.66;;;39.60;11.69
80988;BME280;70452;39.386;-3.210;2023-08-08T13:49:59;94218.13;;;38.74;12.35
80988;BME280;70452;39.386;-3.210;2023-08-08T13:52:31;94206.38;;;38.72;12.53
80988;BME280;70452;39.386;-3.210;2023-08-08T13:55:07;94208.81;;;39.54;11.83
80988;BME280;70452;39.386;-3.210;2023-08-08T13:57:39;94212.75;;;39.66;11.68
80988;BME280;70452;39.386;-3.210;2023-08-08T14:00:20;94208.22;;;39.97;11.35
80988;BME280;70452;39.386;-3.210;2023-08-08T14:02:57;94205.34;;;40.24;11.17
80988;BME280;70452;39.386;-3.210;2023-08-08T14:05:33;94197.13;;;40.17;11.21
80988;BME280;70452;39.386;-3.210;2023-08-08T14:08:13;94190.13;;;40.27;10.97
80988;BME280;70452;39.386;-3.210;2023-08-08T14:10:48;94205.84;;;39.95;11.25
80988;BME280;70452;39.386;-3.210;2023-08-08T14:13:23;94197.44;;;40.10;11.01
80988;BME280;70452;39.386;-3.210;2023-08-08T14:15:55;94194.28;;;40.17;11.00
80988;BME280;70452;39.386;-3.210;2023-08-08T14:18:45;94190.31;;;40.24;11.13
80988;BME280;70452;39.386;-3.210;2023-08-08T14:21:16;94187.59;;;39.92;11.46
80988;BME280;70452;39.386;-3.210;2023-08-08T14:23:58;94191.75;;;39.23;11.86
80988;BME280;70452;39.386;-3.210;2023-08-08T14:26:29;94195.22;;;39.96;11.62
80988;BME280;70452;39.386;-3.210;2023-08-08T14:29:07;94185.88;;;39.86;11.58
80988;BME280;70452;39.386;-3.210;2023-08-08T14:31:40;94186.75;;;38.96;12.04